Time;durP1;ratioP1;P1;durP2;ratioP2;P2;SDS_P1;SDS_P2;PMS_P1;PMS_P2;Temp;Humidity;BMP_temperature;BMP_pressure;BME280_temperature;BME280_humidity;BME280_pressure;Samples;Min_cycle;Max_cycle;Signal;HPM_P1;HPM_P2
2021/03/04 00:02:10;;;;;;;12.87;6.23;;;;;;;;;;4999170;28;20264;-72
2021/03/04 00:04:38;;;;;;;13.20;6.93;;;;;;;;;;4998775;28;20320;-71
2021/03/04 00:07:05;;;;;;;19.80;7.97;;;;;;;;;;4999076;28;20269;-71
2021/03/04 00:09:32;;;;;;;11.90;6.70;;;;;;;;;;4998789;28;20268;-71
2021/03/04 00:11:59;;;;;;;13.10;6.63;;;;;;;;;;4998580;28;20654;-71
2021/03/04 00:14:26;;;;;;;11.10;6.63;;;;;;;;;;4998575;28;20260;-71
2021/03/04 00:16:53;;;;;;;13.07;6.63;;;;;;;;;;4998695;28;20740;-72
2021/03/04 00:19:20;;;;;;;11.73;6.40;;;;;;;;;;4998500;28;20212;-71
2021/03/04 00:21:48;;;;;;;12.80;6.47;;;;;;;;;;4998846;28;20267;-72
2021/03/04 00:24:15;;;;;;;14.47;7.40;;;;;;;;;;4998703;28;20228;-71
2021/03/04 00:26:42;;;;;;;10.97;6.93;;;;;;;;;;4998609;28;20284;-71
2021/03/04 00:29:09;;;;;;;9.23;6.23;;;;;;;;;;4998503;28;20255;-71
2021/03/04 00:31:36;;;;;;;13.60;6.47;;;;;;;;;;4997677;28;20282;-70
2021/03/04 00:34:03;;;;;;;14.47;7.77;;;;;;;;;;4998302;28;20208;-70
2021/03/04 00:36:31;;;;;;;14.93;7.20;;;;;;;;;;4998444;28;20213;-70
2021/03/04 00:38:58;;;;;;;9.73;6.40;;;;;;;;;;4998402;28;20641;-71
2021/03/04 00:41:25;;;;;;;13.33;6.90;;;;;;;;;;4998511;28;20236;-71
2021/03/04 00:43:52;;;;;;;10.63;6.73;;;;;;;;;;4998523;28;20247;-70
2021/03/04 00:46:20;;;;;;;12.23;6.33;;;;;;;;;;4997959;28;20209;-72
2021/03/04 00:48:47;;;;;;;14.47;6.53;;;;;;;;;;4998289;28;20652;-72
2021/03/04 00:51:14;;;;;;;12.00;6.83;;;;;;;;;;4998187;28;20228;-70
2021/03/04 00:53:41;;;;;;;12.50;6.93;;;;;;;;;;4998079;28;20760;-70
2021/03/04 00:56:09;;;;;;;9.87;6.60;;;;;;;;;;4997935;28;20256;-71
2021/03/04 00:58:36;;;;;;;12.40;6.97;;;;;;;;;;4998222;28;20629;-72
2021/03/04 01:01:03;;;;;;;10.50;6.53;;;;;;;;;;4998111;28;20283;-71
2021/03/04 01:03:31;;;;;;;11.30;6.93;;;;;;;;;;4998162;28;20612;-71
2021/03/04 01:05:58;;;;;;;12.53;6.97;;;;;;;;;;4998256;28;20264;-72
2021/03/04 01:08:25;;;;;;;16.20;7.30;;;;;;;;;;4997985;28;20209;-72
2021/03/04 01:10:52;;;;;;;13.30;6.87;;;;;;;;;;4998160;28;20296;-71
2021/03/04 01:13:20;;;;;;;13.13;7.10;;;;;;;;;;4997993;28;20725;-71
2021/03/04 01:15:47;;;;;;;15.83;7.63;;;;;;;;;;4997577;28;20731;-71
2021/03/04 01:18:26;;;;;;;10.63;7.73;;;;;;;;;;4998061;28;20216;-71
2021/03/04 01:20:53;;;;;;;11.23;6.80;;;;;;;;;;4998058;28;20216;-71
2021/03/04 01:23:20;;;;;;;10.30;7.53;;;;;;;;;;4997894;28;20208;-71
2021/03/04 01:25:47;;;;;;;14.43;8.00;;;;;;;;;;4997704;28;20231;-71
2021/03/04 01:28:14;;;;;;;18.30;8.30;;;;;;;;;;4998030;28;20209;-71
2021/03/04 01:30:42;;;;;;;15.00;7.77;;;;;;;;;;4997837;28;20220;-71
2021/03/04 01:33:17;;;;;;;13.93;7.67;;;;;;;;;;4998150;28;20228;-71
2021/03/04 01:35:45;;;;;;;13.37;8.13;;;;;;;;;;4997607;28;20228;-71
2021/03/04 01:38:13;;;;;;;12.70;8.43;;;;;;;;;;4998012;28;20213;-71
2021/03/04 01:40:40;;;;;;;13.83;7.80;;;;;;;;;;4998256;28;20232;-71
2021/03/04 01:43:07;;;;;;;13.67;8.87;;;;;;;;;;5001236;28;20213;-71
2021/03/04 01:45:34;;;;;;;12.33;7.83;;;;;;;;;;5001316;28;20260;-71
2021/03/04 01:48:02;;;;;;;13.63;8.07;;;;;;;;;;5001529;28;20223;-71
2021/03/04 01:50:30;;;;;;;14.63;8.47;;;;;;;;;;4999171;28;20228;-71
2021/03/04 01:52:57;;;;;;;14.33;8.20;;;;;;;;;;5001333;28;20235;-71
2021/03/04 01:55:24;;;;;;;18.80;9.10;;;;;;;;;;5001247;28;20232;-71
2021/03/04 01:57:52;;;;;;;14.60;8.30;;;;;;;;;;5000893;28;20315;-71
2021/03/04 02:00:20;;;;;;;14.33;8.03;;;;;;;;;;5000911;28;20752;-71
2021/03/04 02:02:47;;;;;;;16.50;8.87;;;;;;;;;;5001240;28;20202;-71
2021/03/04 02:05:16;;;;;;;15.90;8.80;;;;;;;;;;5000887;28;20740;-71
2021/03/04 02:07:48;;;;;;;17.67;9.60;;;;;;;;;;5000717;28;20716;-71
2021/03/04 02:10:18;;;;;;;17.97;9.07;;;;;;;;;;5000742;28;20311;-71
2021/03/04 02:12:48;;;;;;;15.70;8.73;;;;;;;;;;5000640;28;20271;-71
2021/03/04 02:15:18;;;;;;;18.03;9.70;;;;;;;;;;5000456;28;20307;-71
2021/03/04 02:17:47;;;;;;;15.03;8.97;;;;;;;;;;5001013;28;20287;-71
2021/03/04 02:20:23;;;;;;;13.47;8.37;;;;;;;;;;5000856;28;20288;-71
2021/03/04 02:22:59;;;;;;;17.30;8.80;;;;;;;;;;5001041;28;20283;-71
2021/03/04 02:25:29;;;;;;;18.57;9.33;;;;;;;;;;5000548;28;20228;-71
2021/03/04 02:27:59;;;;;;;21.30;9.17;;;;;;;;;;5000685;28;20215;-71
2021/03/04 02:30:27;;;;;;;14.73;9.20;;;;;;;;;;5000539;28;20205;-71
2021/03/04 02:33:00;;;;;;;14.20;8.70;;;;;;;;;;5000851;28;20299;-71
2021/03/04 02:35:29;;;;;;;17.87;9.07;;;;;;;;;;5000848;28;20239;-71
2021/03/04 02:37:57;;;;;;;13.90;10.00;;;;;;;;;;5000495;28;20264;-71
2021/03/04 02:40:25;;;;;;;17.03;9.23;;;;;;;;;;5000398;28;20240;-71
2021/03/04 02:42:52;;;;;;;22.77;9.73;;;;;;;;;;5000585;28;20292;-71
2021/03/04 02:45:22;;;;;;;14.37;9.07;;;;;;;;;;5000256;28;20243;-71
2021/03/04 02:47:50;;;;;;;25.23;10.70;;;;;;;;;;5000374;28;20249;-71
2021/03/04 02:50:18;;;;;;;16.17;9.20;;;;;;;;;;5000234;28;20213;-71
2021/03/04 02:52:45;;;;;;;19.10;10.63;;;;;;;;;;4999924;28;20699;-71
2021/03/04 02:55:14;;;;;;;18.87;10.30;;;;;;;;;;4999798;28;20296;-71
2021/03/04 02:57:42;;;;;;;16.53;9.90;;;;;;;;;;5000427;28;20244;-71
2021/03/04 03:00:10;;;;;;;15.70;9.77;;;;;;;;;;5000120;28;20240;-71
2021/03/04 03:02:39;;;;;;;18.87;10.03;;;;;;;;;;5000200;28;20288;-71
2021/03/04 03:05:08;;;;;;;15.90;9.97;;;;;;;;;;5000234;28;20232;-71
2021/03/04 03:07:37;;;;;;;14.33;9.67;;;;;;;;;;4999887;28;20208;-71
2021/03/04 03:10:04;;;;;;;16.13;10.37;;;;;;;;;;4999826;28;20276;-71
2021/03/04 03:12:33;;;;;;;15.73;10.10;;;;;;;;;;4999652;28;20320;-71
2021/03/04 03:15:00;;;;;;;15.80;10.33;;;;;;;;;;4999820;28;20788;-71
2021/03/04 03:17:27;;;;;;;17.47;9.57;;;;;;;;;;5000000;28;20212;-71
2021/03/04 03:20:01;;;;;;;18.03;9.57;;;;;;;;;;4999858;28;20731;-71
2021/03/04 03:22:28;;;;;;;15.80;9.77;;;;;;;;;;4999626;28;20259;-71
2021/03/04 03:24:55;;;;;;;22.07;10.00;;;;;;;;;;4999889;28;20272;-71
2021/03/04 03:27:22;;;;;;;15.70;9.50;;;;;;;;;;4999463;28;20295;-71
2021/03/04 03:29:49;;;;;;;18.80;10.27;;;;;;;;;;4999563;28;20240;-71
2021/03/04 03:32:16;;;;;;;19.90;10.43;;;;;;;;;;4999679;28;20232;-71
2021/03/04 03:34:45;;;;;;;17.77;10.57;;;;;;;;;;4999305;28;20221;-71
2021/03/04 03:37:13;;;;;;;20.83;10.03;;;;;;;;;;4999667;28;20296;-71
2021/03/04 03:39:41;;;;;;;15.63;10.23;;;;;;;;;;4999350;28;20240;-71
2021/03/04 03:42:08;;;;;;;19.47;10.00;;;;;;;;;;4999452;28;20284;-71
2021/03/04 03:44:36;;;;;;;15.73;10.13;;;;;;;;;;4999269;28;20315;-71
2021/03/04 03:47:04;;;;;;;18.63;9.80;;;;;;;;;;4999155;28;20748;-71
2021/03/04 03:49:32;;;;;;;16.20;9.80;;;;;;;;;;4999361;28;20240;-71
2021/03/04 03:52:00;;;;;;;18.73;10.60;;;;;;;;;;4999031;28;20232;-71
2021/03/04 03:54:28;;;;;;;19.77;10.33;;;;;;;;;;4999319;28;20316;-71
2021/03/04 03:56:55;;;;;;;15.17;9.93;;;;;;;;;;4999177;28;20216;-71
2021/03/04 03:59:23;;;;;;;15.23;9.67;;;;;;;;;;4999037;28;20208;-71
2021/03/04 04:01:50;;;;;;;18.27;10.40;;;;;;;;;;4999176;28;20240;-71
2021/03/04 04:04:18;;;;;;;16.47;10.00;;;;;;;;;;4999008;28;20256;-71
2021/03/04 04:06:44;;;;;;;18.93;10.20;;;;;;;;;;4998304;28;20712;-71
2021/03/04 04:09:12;;;;;;;16.13;9.53;;;;;;;;;;4998677;28;20303;-71
2021/03/04 04:11:40;;;;;;;18.63;10.30;;;;;;;;;;4998915;28;20264;-71
2021/03/04 04:14:07;;;;;;;15.50;9.87;;;;;;;;;;4998723;28;20209;-71
2021/03/04 04:16:34;;;;;;;18.13;10.37;;;;;;;;;;4998742;28;20297;-71
2021/03/04 04:19:02;;;;;;;16.73;10.10;;;;;;;;;;4998995;28;20212;-71
2021/03/04 04:21:30;;;;;;;17.67;10.90;;;;;;;;;;4998821;28;20220;-71
2021/03/04 04:23:57;;;;;;;18.47;11.10;;;;;;;;;;4998710;28;20243;-71
2021/03/04 04:26:24;;;;;;;18.53;10.70;;;;;;;;;;4998619;28;20268;-71
2021/03/04 04:28:52;;;;;;;19.20;10.83;;;;;;;;;;4998678;28;20209;-71
2021/03/04 04:31:20;;;;;;;20.47;10.50;;;;;;;;;;4998396;28;20301;-71
2021/03/04 04:33:48;;;;;;;15.90;9.50;;;;;;;;;;4998556;28;20650;-71
2021/03/04 04:36:15;;;;;;;15.30;10.17;;;;;;;;;;4998275;28;20716;-71
2021/03/04 04:38:42;;;;;;;19.37;10.87;;;;;;;;;;4998474;28;20689;-71
2021/03/04 04:41:09;;;;;;;21.47;10.00;;;;;;;;;;4998280;28;20307;-71
2021/03/04 04:43:36;;;;;;;20.23;10.20;;;;;;;;;;4998276;28;20669;-71
2021/03/04 04:46:04;;;;;;;18.00;9.93;;;;;;;;;;4997959;28;20332;-72
2021/03/04 04:48:31;;;;;;;17.70;9.37;;;;;;;;;;4998213;28;20642;-71
2021/03/04 04:51:10;;;;;;;21.03;10.97;;;;;;;;;;4998362;28;20542;-72
2021/03/04 04:53:37;;;;;;;21.33;10.57;;;;;;;;;;4998408;28;20316;-71
2021/03/04 04:56:05;;;;;;;14.33;9.80;;;;;;;;;;4998009;28;20663;-71
2021/03/04 04:58:32;;;;;;;19.10;10.30;;;;;;;;;;4998398;28;20240;-71
2021/03/04 05:00:59;;;;;;;15.77;10.13;;;;;;;;;;4998164;28;20213;-71
2021/03/04 05:03:27;;;;;;;17.50;9.70;;;;;;;;;;4998354;28;20208;-71
2021/03/04 05:05:54;;;;;;;16.20;9.90;;;;;;;;;;4998151;28;20252;-71
2021/03/04 05:08:21;;;;;;;17.60;10.57;;;;;;;;;;4998011;28;20240;-71
2021/03/04 05:10:48;;;;;;;19.83;9.70;;;;;;;;;;4998242;28;20204;-71
2021/03/04 05:13:15;;;;;;;20.10;10.07;;;;;;;;;;4998105;28;20231;-71
2021/03/04 05:15:42;;;;;;;19.07;9.67;;;;;;;;;;4998020;28;20300;-71
2021/03/04 05:18:10;;;;;;;15.43;9.77;;;;;;;;;;5001648;28;20580;-71
2021/03/04 05:20:38;;;;;;;14.53;9.23;;;;;;;;;;5002055;28;20215;-71
2021/03/04 05:23:05;;;;;;;19.77;10.50;;;;;;;;;;5001968;28;20688;-71
2021/03/04 05:25:32;;;;;;;17.40;11.03;;;;;;;;;;5001638;28;20739;-71
2021/03/04 05:27:59;;;;;;;17.27;10.80;;;;;;;;;;5001950;28;20273;-71
2021/03/04 05:30:26;;;;;;;20.90;10.70;;;;;;;;;;5001425;28;20240;-71
2021/03/04 05:32:53;;;;;;;13.03;9.30;;;;;;;;;;5001769;28;20224;-71
2021/03/04 05:35:21;;;;;;;16.50;9.60;;;;;;;;;;5001689;28;20236;-71
2021/03/04 05:37:49;;;;;;;18.47;10.40;;;;;;;;;;5001726;28;20239;-71
2021/03/04 05:40:16;;;;;;;18.10;10.20;;;;;;;;;;5001807;28;20240;-71
2021/03/04 05:42:43;;;;;;;20.37;10.63;;;;;;;;;;5001376;28;20237;-71
2021/03/04 05:45:12;;;;;;;17.50;10.03;;;;;;;;;;5001075;28;20224;-71
2021/03/04 05:47:40;;;;;;;18.17;10.73;;;;;;;;;;5001389;28;20673;-71
2021/03/04 05:50:08;;;;;;;17.77;9.77;;;;;;;;;;5001511;28;20236;-71
2021/03/04 05:52:36;;;;;;;20.40;10.20;;;;;;;;;;5001460;28;20324;-71
2021/03/04 05:55:04;;;;;;;22.00;10.87;;;;;;;;;;5001394;28;20267;-71
2021/03/04 05:57:31;;;;;;;19.43;9.90;;;;;;;;;;5001452;28;20215;-71
2021/03/04 05:59:58;;;;;;;17.70;11.37;;;;;;;;;;5001176;28;20240;-71
2021/03/04 06:02:26;;;;;;;16.83;10.80;;;;;;;;;;5001180;28;20233;-71
2021/03/04 06:04:53;;;;;;;19.00;10.17;;;;;;;;;;5001159;28;20236;-71
2021/03/04 06:07:21;;;;;;;18.33;11.37;;;;;;;;;;5001420;28;20255;-72
2021/03/04 06:09:48;;;;;;;16.43;10.53;;;;;;;;;;5001119;28;20320;-71
2021/03/04 06:12:16;;;;;;;22.17;11.17;;;;;;;;;;5001015;28;20319;-71
2021/03/04 06:14:43;;;;;;;22.33;12.20;;;;;;;;;;5000589;28;20672;-71
2021/03/04 06:17:14;;;;;;;17.27;10.63;;;;;;;;;;5001047;28;20657;-71
2021/03/04 06:19:41;;;;;;;23.97;12.07;;;;;;;;;;5000853;28;20215;-71
2021/03/04 06:22:22;;;;;;;20.87;11.47;;;;;;;;;;5001004;28;20231;-71
2021/03/04 06:24:50;;;;;;;31.57;16.77;;;;;;;;;;5000737;28;20255;-71
2021/03/04 06:27:24;;;;;;;18.20;12.50;;;;;;;;;;5000837;28;20225;-71
2021/03/04 06:29:52;;;;;;;25.83;12.87;;;;;;;;;;4999741;28;20676;-71
2021/03/04 06:32:22;;;;;;;24.27;13.87;;;;;;;;;;5000788;28;20815;-71
2021/03/04 06:35:06;;;;;;;29.53;12.87;;;;;;;;;;5000738;28;20231;-71
2021/03/04 06:37:34;;;;;;;21.50;12.07;;;;;;;;;;4988632;28;20215;-70
2021/03/04 06:40:01;;;;;;;22.83;12.70;;;;;;;;;;5000566;28;20213;-71
2021/03/04 06:42:38;;;;;;;19.93;12.17;;;;;;;;;;5000443;28;20720;-71
2021/03/04 06:45:06;;;;;;;29.00;13.87;;;;;;;;;;5000346;28;20225;-71
2021/03/04 06:47:33;;;;;;;20.63;12.63;;;;;;;;;;5000592;28;20244;-71
2021/03/04 06:50:00;;;;;;;21.57;13.93;;;;;;;;;;5000527;28;20204;-71
2021/03/04 06:52:39;;;;;;;25.87;14.17;;;;;;;;;;5000556;28;20231;-71
2021/03/04 06:55:07;;;;;;;21.20;12.30;;;;;;;;;;5000022;28;20232;-71
2021/03/04 06:57:35;;;;;;;22.03;12.47;;;;;;;;;;5008792;28;20230;-72
2021/03/04 07:00:07;;;;;;;21.03;13.07;;;;;;;;;;5008784;28;20227;-72
2021/03/04 07:02:34;;;;;;;26.50;13.83;;;;;;;;;;5007887;28;20646;-72
2021/03/04 07:05:02;;;;;;;25.13;13.30;;;;;;;;;;4999862;28;20260;-71
2021/03/04 07:07:30;;;;;;;21.03;13.33;;;;;;;;;;5000136;28;20240;-73
2021/03/04 07:09:57;;;;;;;23.37;14.23;;;;;;;;;;4999848;28;20236;-72
2021/03/04 07:12:26;;;;;;;21.20;12.77;;;;;;;;;;4999593;28;20279;-73
2021/03/04 07:14:54;;;;;;;26.27;13.67;;;;;;;;;;4999528;28;20311;-71
2021/03/04 07:17:22;;;;;;;24.03;13.57;;;;;;;;;;5000007;28;20209;-73
2021/03/04 07:19:50;;;;;;;29.63;13.00;;;;;;;;;;5000160;28;20209;-73
2021/03/04 07:22:17;;;;;;;17.90;13.20;;;;;;;;;;4999500;28;20637;-73
2021/03/04 07:24:45;;;;;;;21.10;12.83;;;;;;;;;;4999790;28;20245;-72
2021/03/04 07:27:14;;;;;;;22.23;12.40;;;;;;;;;;4996875;28;20293;-71
2021/03/04 07:29:41;;;;;;;21.30;12.53;;;;;;;;;;4999307;28;20240;-72
2021/03/04 07:32:10;;;;;;;22.70;12.47;;;;;;;;;;4993831;28;20305;-71
2021/03/04 07:34:38;;;;;;;17.97;11.63;;;;;;;;;;4999390;28;20217;-73
2021/03/04 07:37:05;;;;;;;22.33;12.27;;;;;;;;;;4999559;28;20235;-73
2021/03/04 07:39:33;;;;;;;23.43;12.63;;;;;;;;;;4999126;28;20209;-73
2021/03/04 07:42:04;;;;;;;19.17;12.80;;;;;;;;;;4993742;28;20228;-72
2021/03/04 07:44:33;;;;;;;18.97;12.47;;;;;;;;;;4998692;28;20221;-72
2021/03/04 07:47:01;;;;;;;21.07;12.20;;;;;;;;;;4999424;28;20247;-72
2021/03/04 07:49:30;;;;;;;24.10;12.80;;;;;;;;;;4986831;28;20216;-72
2021/03/04 07:51:59;;;;;;;22.90;12.43;;;;;;;;;;4998859;28;20259;-72
2021/03/04 07:54:27;;;;;;;26.43;13.47;;;;;;;;;;4999234;28;20252;-71
2021/03/04 07:57:02;;;;;;;20.80;12.20;;;;;;;;;;4998919;28;20223;-72
2021/03/04 07:59:29;;;;;;;21.97;12.73;;;;;;;;;;4998677;28;20574;-72
2021/03/04 08:01:57;;;;;;;23.50;13.60;;;;;;;;;;4999066;28;20208;-70
2021/03/04 08:04:26;;;;;;;21.03;11.93;;;;;;;;;;4999002;28;20225;-71
2021/03/04 08:06:54;;;;;;;24.13;13.60;;;;;;;;;;4999101;28;20292;-71
2021/03/04 08:09:25;;;;;;;19.53;11.70;;;;;;;;;;4998724;28;20662;-72
2021/03/04 08:12:03;;;;;;;18.57;11.97;;;;;;;;;;4998339;28;20637;-71
2021/03/04 08:14:30;;;;;;;22.27;12.00;;;;;;;;;;4998539;28;20288;-71
2021/03/04 08:16:57;;;;;;;21.97;12.23;;;;;;;;;;4998857;28;20244;-71
2021/03/04 08:19:28;;;;;;;19.53;13.00;;;;;;;;;;4995167;28;20236;-71
2021/03/04 08:22:01;;;;;;;19.70;12.10;;;;;;;;;;4992151;28;20239;-72
2021/03/04 08:24:29;;;;;;;29.03;13.27;;;;;;;;;;4984574;28;20589;-72
2021/03/04 08:26:57;;;;;;;22.73;12.37;;;;;;;;;;4997856;28;20636;-71
2021/03/04 08:29:24;;;;;;;19.37;11.77;;;;;;;;;;4997830;28;20732;-71
2021/03/04 08:31:53;;;;;;;18.57;12.13;;;;;;;;;;4998091;28;20284;-71
2021/03/04 08:34:20;;;;;;;19.33;11.30;;;;;;;;;;4997854;28;20292;-72
2021/03/04 08:36:48;;;;;;;22.93;12.13;;;;;;;;;;4998378;28;20247;-71
2021/03/04 08:39:17;;;;;;;18.83;12.27;;;;;;;;;;4995477;28;20201;-71
2021/03/04 08:41:44;;;;;;;22.87;12.67;;;;;;;;;;4997711;28;20715;-72
2021/03/04 08:44:12;;;;;;;23.73;13.27;;;;;;;;;;4997708;28;20776;-72
2021/03/04 08:46:40;;;;;;;19.27;12.17;;;;;;;;;;4997462;28;20212;-74
2021/03/04 08:49:07;;;;;;;20.00;12.63;;;;;;;;;;4995152;28;20201;-72
2021/03/04 08:51:36;;;;;;;23.57;13.07;;;;;;;;;;4996334;28;20330;-73
2021/03/04 08:54:07;;;;;;;19.70;13.07;;;;;;;;;;4996429;28;20696;-73
2021/03/04 08:56:35;;;;;;;23.47;13.33;;;;;;;;;;4996847;28;20300;-72
2021/03/04 08:59:02;;;;;;;23.70;12.90;;;;;;;;;;4992219;28;20288;-72
2021/03/04 09:01:30;;;;;;;19.20;12.47;;;;;;;;;;4997225;28;20208;-72
2021/03/04 09:03:57;;;;;;;28.13;13.60;;;;;;;;;;4995290;28;20672;-72
2021/03/04 09:06:25;;;;;;;27.77;13.40;;;;;;;;;;4997777;28;20296;-72
2021/03/04 09:08:52;;;;;;;16.57;12.30;;;;;;;;;;4996086;28;20271;-71
2021/03/04 09:11:25;;;;;;;23.17;13.27;;;;;;;;;;4997791;28;20244;-69
2021/03/04 09:14:00;;;;;;;22.13;13.20;;;;;;;;;;4995018;28;20735;-70
2021/03/04 09:16:27;;;;;;;25.07;13.30;;;;;;;;;;4992618;28;20263;-70
2021/03/04 09:18:54;;;;;;;19.43;13.07;;;;;;;;;;4994808;28;20680;-70
2021/03/04 09:21:21;;;;;;;25.33;15.57;;;;;;;;;;4994664;28;20240;-70
2021/03/04 09:23:48;;;;;;;26.23;14.20;;;;;;;;;;4996656;28;20209;-70
2021/03/04 09:26:16;;;;;;;22.80;12.87;;;;;;;;;;4997431;28;20225;-71
2021/03/04 09:28:43;;;;;;;23.10;13.50;;;;;;;;;;4994867;28;20235;-70
2021/03/04 09:31:12;;;;;;;29.40;13.73;;;;;;;;;;4996343;28;20209;-70
2021/03/04 09:33:40;;;;;;;24.93;14.03;;;;;;;;;;4996990;28;20225;-70
2021/03/04 09:36:08;;;;;;;23.13;14.07;;;;;;;;;;4996692;28;20233;-70
2021/03/04 09:38:36;;;;;;;23.13;13.10;;;;;;;;;;4996357;28;20227;-70
2021/03/04 09:41:09;;;;;;;23.50;13.97;;;;;;;;;;4996638;28;20697;-71
2021/03/04 09:43:39;;;;;;;23.00;13.57;;;;;;;;;;4997767;28;20232;-71
2021/03/04 09:46:11;;;;;;;25.57;14.10;;;;;;;;;;4994531;28;20691;-70
2021/03/04 09:48:39;;;;;;;22.27;13.93;;;;;;;;;;4994754;28;20208;-71
2021/03/04 09:51:06;;;;;;;23.07;14.30;;;;;;;;;;4997609;28;20259;-71
2021/03/04 09:53:43;;;;;;;19.87;13.07;;;;;;;;;;4996098;28;20759;-71
2021/03/04 09:56:10;;;;;;;16.50;12.27;;;;;;;;;;4996739;28;20243;-70
2021/03/04 09:58:42;;;;;;;19.97;12.80;;;;;;;;;;4996583;28;20251;-70
2021/03/04 10:01:09;;;;;;;17.87;12.53;;;;;;;;;;4997107;28;20582;-70
2021/03/04 10:03:44;;;;;;;23.40;12.43;;;;;;;;;;4995988;28;20611;-71
2021/03/04 10:06:21;;;;;;;18.80;12.60;;;;;;;;;;4999617;28;20225;-70
2021/03/04 10:08:52;;;;;;;30.67;13.90;;;;;;;;;;4998271;28;20271;-70
2021/03/04 10:11:21;;;;;;;24.20;14.87;;;;;;;;;;5000399;28;20291;-70
2021/03/04 10:13:48;;;;;;;19.77;12.33;;;;;;;;;;4998643;28;20225;-70
2021/03/04 10:16:15;;;;;;;22.60;13.87;;;;;;;;;;4993118;28;20272;-70
2021/03/04 10:18:47;;;;;;;20.63;13.30;;;;;;;;;;4998197;28;20200;-70
2021/03/04 10:21:14;;;;;;;24.70;13.70;;;;;;;;;;4997651;28;20232;-70
2021/03/04 10:23:41;;;;;;;24.43;13.00;;;;;;;;;;4999207;28;20280;-71
2021/03/04 10:26:08;;;;;;;21.27;11.83;;;;;;;;;;5000848;28;20288;-71
2021/03/04 10:28:35;;;;;;;24.33;12.33;;;;;;;;;;4997814;28;20280;-72
2021/03/04 10:31:02;;;;;;;21.63;12.03;;;;;;;;;;4999855;28;20648;-73
2021/03/04 10:33:30;;;;;;;19.67;10.63;;;;;;;;;;4998866;28;20256;-72
2021/03/04 10:35:58;;;;;;;21.40;11.97;;;;;;;;;;4999250;28;20251;-72
2021/03/04 10:38:25;;;;;;;22.33;12.03;;;;;;;;;;4999317;28;20239;-73
2021/03/04 10:40:52;;;;;;;22.13;12.60;;;;;;;;;;5000577;28;20291;-72
2021/03/04 10:43:19;;;;;;;20.17;11.30;;;;;;;;;;4999403;28;20248;-73
2021/03/04 10:45:46;;;;;;;16.50;9.87;;;;;;;;;;4999695;28;20331;-73
2021/03/04 10:48:14;;;;;;;22.73;12.03;;;;;;;;;;4999238;28;20213;-73
2021/03/04 10:50:41;;;;;;;21.37;12.40;;;;;;;;;;4999128;28;20208;-72
2021/03/04 10:53:09;;;;;;;19.27;12.17;;;;;;;;;;4999781;28;20315;-73
2021/03/04 10:55:40;;;;;;;21.83;12.57;;;;;;;;;;4999226;28;20225;-71
2021/03/04 10:58:07;;;;;;;22.53;12.13;;;;;;;;;;4997802;28;20609;-72
2021/03/04 11:00:34;;;;;;;19.53;11.63;;;;;;;;;;4999184;28;20305;-72
2021/03/04 11:03:02;;;;;;;30.13;12.20;;;;;;;;;;4998842;28;20205;-72
2021/03/04 11:05:29;;;;;;;17.43;11.03;;;;;;;;;;4999975;28;20283;-71
2021/03/04 11:07:56;;;;;;;25.70;10.87;;;;;;;;;;4997042;28;20540;-71
2021/03/04 11:10:24;;;;;;;21.37;9.87;;;;;;;;;;4999333;28;20311;-72
2021/03/04 11:12:51;;;;;;;20.83;11.27;;;;;;;;;;4998905;28;20221;-72
2021/03/04 11:15:19;;;;;;;24.27;10.10;;;;;;;;;;4997854;28;20221;-72
2021/03/04 11:17:49;;;;;;;18.20;10.53;;;;;;;;;;4999458;28;20205;-72
2021/03/04 11:20:17;;;;;;;18.93;10.97;;;;;;;;;;4999619;28;20213;-72
2021/03/04 11:22:44;;;;;;;21.70;11.30;;;;;;;;;;4999506;28;20239;-72
2021/03/04 11:25:11;;;;;;;24.33;11.10;;;;;;;;;;4999677;28;20260;-72
2021/03/04 11:27:39;;;;;;;18.97;11.97;;;;;;;;;;4999216;28;20263;-72
2021/03/04 11:30:07;;;;;;;23.50;11.50;;;;;;;;;;4999098;28;20696;-72
2021/03/04 11:32:34;;;;;;;18.37;10.43;;;;;;;;;;4999347;28;20236;-72
2021/03/04 11:35:02;;;;;;;19.90;11.13;;;;;;;;;;4999217;28;20228;-71
2021/03/04 11:37:29;;;;;;;17.10;11.00;;;;;;;;;;4999454;28;20243;-71
2021/03/04 11:39:56;;;;;;;19.07;10.70;;;;;;;;;;4999513;28;20244;-71
2021/03/04 11:42:23;;;;;;;20.23;10.63;;;;;;;;;;4999197;28;20244;-71
2021/03/04 11:44:51;;;;;;;22.13;10.63;;;;;;;;;;4998969;28;20225;-71
2021/03/04 11:47:18;;;;;;;14.40;9.93;;;;;;;;;;4998976;28;20249;-71
2021/03/04 11:49:45;;;;;;;16.07;9.90;;;;;;;;;;4998488;28;20217;-72
2021/03/04 11:52:13;;;;;;;20.63;10.97;;;;;;;;;;4998690;28;20263;-71
2021/03/04 11:54:40;;;;;;;19.17;10.23;;;;;;;;;;4998203;28;20868;-72
2021/03/04 11:57:07;;;;;;;17.10;8.47;;;;;;;;;;4998772;28;20243;-71
2021/03/04 11:59:34;;;;;;;21.17;8.50;;;;;;;;;;4998339;28;20225;-71
2021/03/04 12:02:02;;;;;;;18.10;7.27;;;;;;;;;;4998668;28;20232;-71
2021/03/04 12:04:30;;;;;;;12.33;7.03;;;;;;;;;;4997880;28;20231;-71
2021/03/04 12:06:59;;;;;;;17.97;7.27;;;;;;;;;;4998329;28;20213;-72
2021/03/04 12:09:27;;;;;;;12.27;7.37;;;;;;;;;;4998117;28;20236;-71
2021/03/04 12:11:55;;;;;;;12.53;8.03;;;;;;;;;;4997891;28;20358;-71
2021/03/04 12:14:22;;;;;;;18.20;6.83;;;;;;;;;;4997889;28;20237;-71
2021/03/04 12:16:51;;;;;;;11.97;7.07;;;;;;;;;;4997922;28;20209;-71
2021/03/04 12:19:20;;;;;;;11.47;7.27;;;;;;;;;;4998223;28;20885;-71
2021/03/04 12:21:47;;;;;;;20.87;6.90;;;;;;;;;;4998206;28;20215;-71
2021/03/04 12:24:15;;;;;;;16.07;7.80;;;;;;;;;;4997858;28;20225;-71
2021/03/04 12:26:44;;;;;;;15.03;7.80;;;;;;;;;;4997268;28;20240;-71
2021/03/04 12:29:12;;;;;;;12.67;7.50;;;;;;;;;;4997798;28;20209;-71
2021/03/04 12:31:40;;;;;;;14.00;7.00;;;;;;;;;;4997740;28;20217;-71
2021/03/04 12:34:07;;;;;;;18.57;7.80;;;;;;;;;;4998097;28;20237;-71
2021/03/04 12:36:36;;;;;;;17.23;8.20;;;;;;;;;;4997935;28;20252;-72
2021/03/04 12:39:04;;;;;;;16.53;7.83;;;;;;;;;;4997856;28;20231;-72
2021/03/04 12:41:31;;;;;;;18.00;7.87;;;;;;;;;;4997650;28;20209;-71
2021/03/04 12:43:58;;;;;;;14.57;6.73;;;;;;;;;;4997468;28;20685;-71
2021/03/04 12:46:25;;;;;;;15.17;7.27;;;;;;;;;;4989690;28;20216;-72
2021/03/04 12:48:53;;;;;;;9.60;5.83;;;;;;;;;;4997698;28;20623;-71
2021/03/04 12:51:20;;;;;;;13.73;7.23;;;;;;;;;;4997867;28;20227;-71
2021/03/04 12:53:48;;;;;;;22.40;7.47;;;;;;;;;;4997436;28;20653;-71
2021/03/04 12:56:15;;;;;;;12.20;7.30;;;;;;;;;;4997016;28;20785;-72
2021/03/04 12:58:42;;;;;;;15.70;7.50;;;;;;;;;;4996787;28;20205;-69
2021/03/04 13:01:09;;;;;;;12.27;7.00;;;;;;;;;;4997355;28;20204;-69
2021/03/04 13:03:37;;;;;;;14.63;6.93;;;;;;;;;;4997070;28;20296;-69
2021/03/04 13:06:04;;;;;;;16.20;6.60;;;;;;;;;;4997407;28;20229;-68
2021/03/04 13:08:53;;;;;;;20.57;6.30;;;;;;;;;;4996778;28;20240;-70
2021/03/04 13:11:20;;;;;;;16.30;6.23;;;;;;;;;;4996735;28;20236;-70
2021/03/04 13:13:47;;;;;;;12.27;6.43;;;;;;;;;;4997124;28;20229;-70
2021/03/04 13:16:15;;;;;;;14.03;6.73;;;;;;;;;;4995581;28;20252;-70
2021/03/04 13:18:43;;;;;;;17.13;7.60;;;;;;;;;;4997425;28;20557;-70
2021/03/04 13:21:10;;;;;;;15.23;6.17;;;;;;;;;;4997077;28;20619;-70
2021/03/04 13:23:37;;;;;;;9.87;5.77;;;;;;;;;;4997218;28;20205;-70
2021/03/04 13:26:08;;;;;;;11.60;6.07;;;;;;;;;;4997100;28;20311;-69
2021/03/04 13:28:35;;;;;;;14.50;6.00;;;;;;;;;;4997215;28;20311;-70
2021/03/04 13:31:02;;;;;;;13.60;5.87;;;;;;;;;;4997409;28;20236;-70
2021/03/04 13:33:29;;;;;;;14.53;6.50;;;;;;;;;;4997184;28;20232;-70
2021/03/04 13:35:57;;;;;;;15.60;5.97;;;;;;;;;;4997076;28;20236;-70
2021/03/04 13:38:26;;;;;;;10.53;5.80;;;;;;;;;;4999395;28;20646;-70
2021/03/04 13:40:54;;;;;;;17.83;6.23;;;;;;;;;;5000574;28;20765;-68
2021/03/04 13:43:22;;;;;;;11.87;5.93;;;;;;;;;;4999976;28;20231;-69
2021/03/04 13:45:49;;;;;;;13.20;6.60;;;;;;;;;;5000430;28;20272;-68
2021/03/04 13:48:16;;;;;;;23.27;6.57;;;;;;;;;;4998419;28;20197;-68
2021/03/04 13:50:44;;;;;;;14.00;6.53;;;;;;;;;;5001075;28;20291;-70
2021/03/04 13:53:11;;;;;;;12.73;6.80;;;;;;;;;;5000720;28;20232;-70
2021/03/04 13:55:39;;;;;;;14.40;6.17;;;;;;;;;;5001180;28;20260;-69
2021/03/04 13:58:06;;;;;;;13.70;5.93;;;;;;;;;;5000839;28;20268;-68
2021/03/04 14:00:34;;;;;;;10.73;5.70;;;;;;;;;;5000312;28;20738;-70
2021/03/04 14:03:02;;;;;;;12.47;5.80;;;;;;;;;;5000598;28;20263;-70
2021/03/04 14:05:30;;;;;;;17.10;5.10;;;;;;;;;;5000730;28;20260;-70
2021/03/04 14:07:57;;;;;;;19.10;6.90;;;;;;;;;;5000517;28;20296;-70
2021/03/04 14:10:24;;;;;;;10.73;5.17;;;;;;;;;;4999064;28;20372;-70
2021/03/04 14:12:51;;;;;;;10.17;5.23;;;;;;;;;;4998397;28;20625;-70
2021/03/04 14:15:18;;;;;;;11.30;4.93;;;;;;;;;;5000056;28;20229;-70
2021/03/04 14:17:46;;;;;;;17.03;5.13;;;;;;;;;;5000185;28;20235;-70
2021/03/04 14:20:14;;;;;;;13.13;5.73;;;;;;;;;;5000241;28;20209;-70
2021/03/04 14:22:42;;;;;;;9.90;5.57;;;;;;;;;;5000004;28;20263;-70
2021/03/04 14:25:11;;;;;;;13.53;5.53;;;;;;;;;;5000184;28;20311;-70
2021/03/04 14:27:38;;;;;;;15.27;5.70;;;;;;;;;;4999695;28;20212;-71
2021/03/04 14:30:09;;;;;;;11.07;4.97;;;;;;;;;;4999892;28;20213;-70